Terminal Aerodrome Forecast
Issued by NWS

Home | Current Version | Previous Version | Text Only | Print | Product List | Glossary On
Versions: 1 2 3 4 5 6 7 8 9 10 11 12 13 14 15 16 17 18 19 20 21 22 23 24 25 26 27
000
FTUS45 KBOU 272337
TAFAPA
TAF
KAPA 272337Z 2800/2824 04007KT P6SM FEW110 SCT200
     FM280400 13011KT P6SM FEW100 BKN200
     FM280700 18011KT P6SM FEW120 SCT200
     FM281200 VRB05KT P6SM FEW140
     FM281500 35005KT P6SM FEW150
     FM281900 03013KT P6SM FEW080 SCT140
     FM282300 06012G20KT P6SM SCT080 BKN120=

USA.gov is the U.S. government's official web portal to all federal, state and local government web resources and services.